createdAt,value
2019-03-04T00:05:14.119Z,4.78
2019-03-04T00:07:44.227Z,4.84
2019-03-04T00:10:14.333Z,4.83
2019-03-04T00:12:44.420Z,4.83
2019-03-04T00:15:14.534Z,4.83
2019-03-04T00:18:05.112Z,4.83
2019-03-04T00:20:35.209Z,4.80
2019-03-04T00:23:05.329Z,4.79
2019-03-04T00:25:35.467Z,4.75
2019-03-04T00:28:05.697Z,4.70
2019-03-04T00:30:35.781Z,4.68
2019-03-04T00:33:17.980Z,4.68
2019-03-04T00:35:48.094Z,4.62
2019-03-04T00:38:18.232Z,4.55
2019-03-04T00:40:48.336Z,4.56
2019-03-04T00:43:18.668Z,4.53
2019-03-04T00:45:48.765Z,4.56
2019-03-04T00:48:18.897Z,4.58
2019-03-04T00:50:48.996Z,4.59
2019-03-04T00:53:19.119Z,4.61
2019-03-04T00:55:49.211Z,4.64
2019-03-04T00:58:19.376Z,4.66
2019-03-04T01:00:49.486Z,4.62
2019-03-04T01:03:19.587Z,4.53
2019-03-04T01:05:49.694Z,4.51
2019-03-04T01:08:19.853Z,4.51
2019-03-04T01:11:01.850Z,4.47
2019-03-04T01:13:44.104Z,4.49
2019-03-04T01:16:14.181Z,4.49
2019-03-04T01:18:44.287Z,4.49
2019-03-04T01:21:14.414Z,4.50
2019-03-04T01:23:44.616Z,4.49
2019-03-04T01:26:14.771Z,4.47
2019-03-04T01:28:44.929Z,4.44
2019-03-04T01:31:15.036Z,4.45
2019-03-04T01:33:56.777Z,4.44
2019-03-04T01:36:26.872Z,4.45
2019-03-04T01:38:56.996Z,4.43
2019-03-04T01:41:27.086Z,4.43
2019-03-04T01:43:57.194Z,4.40
2019-03-04T01:46:27.328Z,4.34
2019-03-04T01:48:57.452Z,4.28
2019-03-04T01:51:27.547Z,4.18
2019-03-04T01:53:57.657Z,4.08
2019-03-04T01:56:27.746Z,4.19
2019-03-04T01:58:57.843Z,4.24
2019-03-04T02:02:06.037Z,4.20
2019-03-04T02:04:36.140Z,4.28
2019-03-04T02:10:37.035Z,4.05
2019-03-04T02:13:07.130Z,3.80
2019-03-04T02:15:37.226Z,3.71
2019-03-04T02:18:07.318Z,3.62
2019-03-04T02:20:58.149Z,3.66
2019-03-04T02:23:28.246Z,3.02
2019-03-04T02:26:22.297Z,3.27
2019-03-04T02:28:52.474Z,3.35
2019-03-04T02:31:24.212Z,3.42
2019-03-04T02:33:54.313Z,3.34
2019-03-04T02:36:24.476Z,3.42
2019-03-04T02:38:54.581Z,3.47
2019-03-04T02:41:24.804Z,3.61
2019-03-04T02:46:43.969Z,3.59
2019-03-04T02:49:14.091Z,3.41
2019-03-04T02:51:44.210Z,3.27
2019-03-04T02:54:15.943Z,3.03
2019-03-04T02:56:46.051Z,2.91
2019-03-04T02:59:16.140Z,2.93
2019-03-04T03:01:46.251Z,2.80
2019-03-04T03:04:16.358Z,2.84
2019-03-04T03:06:46.465Z,2.74
2019-03-04T03:09:16.581Z,2.75
2019-03-04T03:11:46.701Z,2.63
2019-03-04T03:14:16.835Z,2.66
2019-03-04T03:16:48.550Z,2.80
2019-03-04T03:19:18.653Z,2.88
2019-03-04T03:21:48.757Z,2.70
2019-03-04T03:24:18.858Z,2.68
2019-03-04T03:29:30.997Z,2.72
2019-03-04T03:32:01.130Z,2.71
2019-03-04T03:34:31.207Z,2.73
2019-03-04T03:37:01.331Z,2.93
2019-03-04T03:39:31.421Z,2.83
2019-03-04T03:42:01.522Z,2.82
2019-03-04T03:44:31.604Z,2.73
2019-03-04T03:47:01.717Z,2.65
2019-03-04T03:49:31.797Z,2.65
2019-03-04T03:52:01.927Z,2.71
2019-03-04T03:54:51.134Z,2.79
2019-03-04T03:57:22.849Z,2.78
2019-03-04T03:59:52.990Z,2.65
2019-03-04T04:02:23.096Z,2.74
2019-03-04T04:04:53.208Z,2.58
2019-03-04T04:07:23.320Z,2.57
2019-03-04T04:09:53.441Z,2.54
2019-03-04T04:12:23.537Z,2.61
2019-03-04T04:14:53.638Z,2.60
2019-03-04T04:17:23.749Z,2.51
2019-03-04T04:19:53.873Z,2.55
2019-03-04T04:22:43.376Z,2.56
2019-03-04T04:25:13.665Z,2.58
2019-03-04T04:27:45.401Z,2.54
2019-03-04T04:32:56.843Z,2.63
2019-03-04T04:38:16.009Z,2.43
2019-03-04T04:40:46.181Z,2.53
2019-03-04T04:43:16.226Z,2.48
2019-03-04T04:45:47.952Z,2.48
2019-03-04T04:48:18.072Z,2.50
2019-03-04T04:50:48.184Z,2.47
2019-03-04T04:53:18.327Z,2.54
2019-03-04T04:55:48.407Z,2.62
2019-03-04T04:58:18.521Z,2.57
2019-03-04T05:00:48.724Z,2.56
2019-03-04T05:03:18.871Z,2.58
2019-03-04T05:05:48.985Z,2.59
2019-03-04T05:08:19.132Z,2.48
2019-03-04T05:10:49.249Z,2.53
2019-03-04T05:13:19.358Z,2.44
2019-03-04T05:15:49.458Z,2.44
2019-03-04T05:21:18.100Z,2.43
2019-03-04T05:23:55.830Z,2.36
2019-03-04T05:26:25.956Z,2.37
2019-03-04T05:29:08.043Z,2.33
2019-03-04T05:31:38.276Z,2.30
2019-03-04T05:34:08.370Z,2.32
2019-03-04T05:36:38.484Z,2.36
2019-03-04T05:39:08.612Z,2.39
2019-03-04T05:41:39.006Z,2.43
2019-03-04T05:47:06.235Z,2.36
2019-03-04T05:49:36.435Z,2.33
2019-03-04T05:52:06.576Z,2.32
2019-03-04T05:54:37.152Z,2.34
2019-03-04T05:57:07.241Z,2.30
2019-03-04T05:59:37.413Z,2.36
2019-03-04T06:02:09.789Z,2.41
2019-03-04T06:10:51.500Z,2.53
2019-03-04T06:13:21.696Z,2.57
2019-03-04T06:15:51.818Z,2.49
2019-03-04T06:18:21.938Z,2.48
2019-03-04T06:20:52.157Z,2.64
2019-03-04T06:23:22.244Z,2.64
2019-03-04T06:26:11.441Z,2.71
2019-03-04T06:28:41.828Z,2.82
2019-03-04T06:31:11.972Z,2.93
2019-03-04T06:33:42.093Z,2.86
2019-03-04T06:36:24.354Z,2.90
2019-03-04T06:38:54.511Z,2.88
2019-03-04T06:41:24.739Z,2.92
2019-03-04T06:44:05.785Z,2.85
2019-03-04T06:46:35.989Z,3.02
2019-03-04T06:49:34.461Z,2.92
2019-03-04T06:52:05.100Z,2.89
2019-03-04T06:55:13.468Z,2.82
2019-03-04T06:57:49.587Z,2.89
2019-03-04T07:00:57.869Z,2.90
2019-03-04T07:03:51.897Z,2.83
2019-03-04T07:06:23.716Z,2.86
2019-03-04T07:09:14.880Z,2.84
2019-03-04T07:11:55.542Z,2.77
2019-03-04T07:14:27.330Z,2.71
2019-03-04T07:17:01.201Z,2.75
2019-03-04T07:19:42.561Z,2.76
2019-03-04T07:22:31.850Z,2.74
2019-03-04T07:28:04.370Z,2.73
2019-03-04T07:39:27.057Z,2.74
2019-03-04T07:47:42.405Z,2.78
2019-03-04T07:50:12.677Z,2.85
2019-03-04T07:52:42.781Z,2.89
2019-03-04T07:55:12.939Z,2.98
2019-03-04T07:57:43.262Z,3.00
2019-03-04T08:00:13.610Z,3.09
2019-03-04T08:02:43.783Z,3.09
2019-03-04T08:11:43.300Z,3.30
2019-03-04T08:14:13.434Z,3.36
2019-03-04T08:16:43.529Z,3.48
2019-03-04T08:19:13.635Z,3.60
2019-03-04T08:21:43.745Z,3.64
2019-03-04T08:24:13.889Z,3.64
2019-03-04T08:26:43.982Z,3.59
2019-03-04T08:29:25.700Z,3.59
2019-03-04T08:31:55.814Z,3.53
2019-03-04T08:34:31.021Z,3.39
2019-03-04T08:37:03.410Z,3.33
2019-03-04T08:39:33.515Z,3.28
2019-03-04T08:42:03.627Z,3.25
2019-03-04T08:44:33.797Z,3.37
2019-03-04T08:47:03.953Z,3.29
2019-03-04T08:49:34.089Z,3.33
2019-03-04T08:55:16.968Z,3.41
2019-03-04T08:57:47.143Z,3.34
2019-03-04T09:03:20.831Z,3.40
2019-03-04T09:05:50.974Z,3.50
2019-03-04T09:11:21.573Z,3.68
2019-03-04T09:13:54.684Z,3.64
2019-03-04T09:16:24.831Z,3.75
2019-03-04T09:18:55.036Z,3.80
2019-03-04T09:21:25.152Z,3.73
2019-03-04T09:24:06.807Z,3.74
2019-03-04T09:26:48.927Z,3.76
2019-03-04T09:29:19.029Z,3.87
2019-03-04T09:31:49.152Z,3.88
2019-03-04T09:34:19.256Z,3.85
2019-03-04T09:36:49.345Z,3.88
2019-03-04T09:39:19.446Z,3.91
2019-03-04T09:44:45.535Z,3.98
2019-03-04T09:47:15.677Z,4.03
2019-03-04T09:49:45.790Z,3.95
2019-03-04T09:52:15.901Z,4.07
2019-03-04T09:54:46.078Z,4.02
2019-03-04T09:57:16.220Z,4.07
2019-03-04T09:59:47.044Z,4.10
2019-03-04T10:02:32.231Z,4.13
2019-03-04T10:05:40.418Z,4.19
2019-03-04T10:08:35.414Z,4.18
2019-03-04T10:11:43.725Z,4.21
2019-03-04T10:14:53.813Z,4.26
2019-03-04T10:18:02.133Z,4.28
2019-03-04T10:20:44.390Z,4.38
2019-03-04T10:23:37.532Z,4.40
2019-03-04T10:26:45.782Z,4.41
2019-03-04T10:29:53.962Z,4.43
2019-03-04T10:33:02.148Z,4.39
2019-03-04T10:36:10.341Z,4.40
2019-03-04T10:39:22.411Z,4.43
2019-03-04T10:42:33.734Z,4.41
2019-03-04T10:45:26.929Z,4.43
2019-03-04T10:47:57.033Z,4.39
2019-03-04T10:53:08.868Z,4.30
2019-03-04T10:55:42.259Z,4.20
2019-03-04T10:58:29.950Z,4.19
2019-03-04T11:03:42.366Z,4.29
2019-03-04T11:06:12.509Z,4.24
2019-03-04T11:08:42.596Z,4.27
2019-03-04T11:11:12.690Z,4.29
2019-03-04T11:13:42.787Z,4.25
2019-03-04T11:16:12.883Z,4.26
2019-03-04T11:18:43.001Z,4.34
2019-03-04T11:21:13.094Z,4.21
2019-03-04T11:23:43.204Z,4.14
2019-03-04T11:26:13.314Z,4.13
2019-03-04T11:28:43.475Z,4.18
2019-03-04T11:31:13.594Z,4.23
2019-03-04T11:33:43.708Z,4.17
2019-03-04T11:36:16.866Z,4.18
2019-03-04T11:38:51.135Z,4.16
2019-03-04T11:41:36.148Z,4.05
2019-03-04T11:44:13.910Z,4.07
2019-03-04T11:46:44.085Z,4.11
2019-03-04T11:49:14.350Z,4.04
2019-03-04T11:54:59.418Z,4.12
2019-03-04T11:57:48.694Z,4.15
2019-03-04T12:00:41.027Z,4.05
2019-03-04T12:03:11.259Z,4.02
2019-03-04T12:05:43.281Z,4.16
2019-03-04T12:08:32.593Z,4.16
2019-03-04T12:11:02.772Z,4.11
2019-03-04T12:13:32.900Z,4.09
2019-03-04T12:18:55.387Z,4.15
2019-03-04T12:21:25.498Z,4.09
2019-03-04T12:23:55.614Z,3.99
2019-03-04T12:26:25.870Z,4.05
2019-03-04T12:28:57.621Z,4.04
2019-03-04T12:34:39.125Z,4.01
2019-03-04T12:37:09.261Z,4.08
2019-03-04T12:39:39.382Z,4.11
2019-03-04T12:42:09.497Z,4.02
2019-03-04T12:44:39.592Z,4.00
2019-03-04T12:47:09.721Z,4.08
2019-03-04T12:49:39.840Z,3.97
2019-03-04T12:52:09.938Z,3.98
2019-03-04T12:54:40.050Z,3.98
2019-03-04T12:57:10.142Z,3.95
2019-03-04T12:59:40.272Z,3.85
2019-03-04T13:02:10.331Z,3.85
2019-03-04T13:04:42.206Z,3.85
2019-03-04T13:07:12.258Z,3.80
2019-03-04T13:10:02.856Z,3.79
2019-03-04T13:12:35.004Z,3.80
2019-03-04T13:15:08.568Z,3.72
2019-03-04T13:17:57.937Z,3.67
2019-03-04T13:20:28.122Z,3.66
2019-03-04T13:23:17.298Z,3.68
2019-03-04T13:25:47.474Z,3.70
2019-03-04T13:28:17.609Z,3.65
2019-03-04T13:30:47.712Z,3.71
2019-03-04T13:33:17.836Z,3.73
2019-03-04T13:35:48.016Z,3.66
2019-03-04T13:38:18.163Z,3.65
2019-03-04T13:40:59.486Z,3.65
2019-03-04T13:43:29.633Z,3.67
2019-03-04T13:45:59.690Z,3.64
2019-03-04T13:48:29.801Z,3.65
2019-03-04T13:50:59.917Z,3.57
2019-03-04T13:53:30.033Z,3.63
2019-03-04T13:56:00.156Z,3.68
2019-03-04T13:58:42.291Z,3.71
2019-03-04T14:01:12.396Z,3.56
2019-03-04T14:03:42.494Z,3.60
2019-03-04T14:06:12.615Z,3.53
2019-03-04T14:08:42.731Z,3.63
2019-03-04T14:11:13.231Z,3.73
2019-03-04T14:14:02.491Z,3.68
2019-03-04T14:16:32.606Z,3.71
2019-03-04T14:19:02.712Z,3.79
2019-03-04T14:21:35.278Z,3.66
2019-03-04T14:24:24.529Z,3.57
2019-03-04T14:26:54.633Z,3.60
2019-03-04T14:29:26.391Z,3.57
2019-03-04T14:31:56.510Z,3.65
2019-03-04T14:34:26.668Z,3.63
2019-03-04T14:36:56.811Z,3.66
2019-03-04T14:39:46.131Z,3.63
2019-03-04T14:42:27.917Z,3.60
2019-03-04T14:45:10.088Z,3.50
2019-03-04T14:47:42.619Z,3.47
2019-03-04T14:53:18.765Z,3.39
2019-03-04T14:55:49.130Z,3.39
2019-03-04T14:58:35.514Z,3.39
2019-03-04T15:01:26.160Z,3.36
2019-03-04T15:03:56.506Z,3.43
2019-03-04T15:06:26.797Z,3.54
2019-03-04T15:08:56.939Z,3.61
2019-03-04T15:11:27.125Z,3.48
2019-03-04T15:13:57.305Z,3.48
2019-03-04T15:16:27.526Z,3.49
2019-03-04T15:18:57.949Z,3.49
2019-03-04T15:21:28.154Z,3.58
2019-03-04T15:23:58.429Z,3.59
2019-03-04T15:26:47.872Z,3.51
2019-03-04T15:29:18.167Z,3.55
2019-03-04T15:35:16.284Z,3.70
2019-03-04T15:40:42.307Z,3.56
2019-03-04T15:43:12.482Z,3.56
2019-03-04T15:48:39.417Z,3.51
2019-03-04T15:51:15.857Z,3.51
2019-03-04T15:53:46.086Z,3.57
2019-03-04T15:56:16.177Z,3.54
2019-03-04T15:58:46.693Z,3.63
2019-03-04T16:01:20.699Z,3.64
2019-03-04T16:03:53.231Z,3.58
2019-03-04T16:06:28.453Z,3.51
2019-03-04T16:08:58.837Z,3.54
2019-03-04T16:11:29.242Z,3.53
2019-03-04T16:13:59.739Z,3.52
2019-03-04T16:16:29.843Z,3.47
2019-03-04T16:19:00.025Z,3.50
2019-03-04T16:21:30.226Z,3.43
2019-03-04T16:24:00.499Z,3.42
2019-03-04T16:26:30.642Z,3.42
2019-03-04T16:29:00.878Z,3.41
2019-03-04T16:31:31.078Z,3.47
2019-03-04T16:34:01.261Z,3.45
2019-03-04T16:36:31.372Z,3.47
2019-03-04T16:39:03.790Z,3.47
2019-03-04T16:42:04.528Z,3.43
2019-03-04T16:47:18.252Z,3.47
2019-03-04T16:52:31.417Z,3.38
2019-03-04T16:55:01.594Z,3.40
2019-03-04T16:57:50.880Z,3.39
2019-03-04T17:00:40.170Z,3.39
2019-03-04T17:03:29.411Z,3.39
2019-03-04T17:05:59.631Z,3.37
2019-03-04T17:08:31.430Z,3.40
2019-03-04T17:11:01.641Z,3.47
2019-03-04T17:13:31.810Z,3.48
2019-03-04T17:16:13.505Z,3.55
2019-03-04T17:18:43.771Z,3.58
2019-03-04T17:21:13.974Z,3.68
2019-03-04T17:23:44.145Z,3.71
2019-03-04T17:26:38.166Z,3.76
2019-03-04T17:29:11.031Z,3.73
2019-03-04T17:31:43.888Z,3.70
2019-03-04T17:34:16.093Z,3.80
2019-03-04T17:36:46.219Z,3.79
2019-03-04T17:39:35.321Z,3.66
2019-03-04T17:45:00.306Z,3.65
2019-03-04T17:47:30.451Z,3.62
2019-03-04T17:50:00.627Z,3.67
2019-03-04T17:52:30.854Z,3.63
2019-03-04T17:55:00.981Z,3.71
2019-03-04T17:57:31.168Z,3.67
2019-03-04T18:05:45.856Z,3.69
2019-03-04T18:08:16.013Z,3.74
2019-03-04T18:10:46.129Z,3.67
2019-03-04T18:13:16.465Z,3.72
2019-03-04T18:16:05.653Z,3.59
2019-03-04T18:21:31.346Z,3.55
2019-03-04T18:24:22.928Z,3.51
2019-03-04T18:27:25.612Z,3.52
2019-03-04T18:30:13.169Z,3.46
2019-03-04T18:33:27.096Z,3.48
2019-03-04T18:36:35.625Z,3.51
2019-03-04T18:39:28.194Z,3.45
2019-03-04T18:42:23.150Z,3.50
2019-03-04T18:45:12.818Z,3.53
2019-03-04T18:48:21.294Z,3.60
2019-03-04T18:51:12.391Z,3.48
2019-03-04T18:57:05.081Z,3.45
2019-03-04T18:59:35.263Z,3.46
2019-03-04T19:05:27.891Z,3.42
2019-03-04T19:07:50.106Z,3.40
2019-03-04T19:10:21.128Z,3.52
2019-03-04T19:12:51.897Z,3.54
2019-03-04T19:15:22.660Z,3.54
2019-03-04T19:17:53.299Z,3.48
2019-03-04T19:20:29.080Z,3.42
2019-03-04T19:26:01.550Z,3.44
2019-03-04T19:28:52.966Z,3.49
2019-03-04T19:32:07.074Z,3.44
2019-03-04T19:37:20.048Z,3.44
2019-03-04T19:39:50.171Z,3.42
2019-03-04T19:42:20.286Z,3.45
2019-03-04T19:44:50.383Z,3.45
2019-03-04T19:47:20.609Z,3.51
2019-03-04T19:49:50.765Z,3.43
2019-03-04T19:52:20.904Z,3.51
2019-03-04T19:57:45.961Z,3.57
2019-03-04T20:00:37.067Z,3.45
2019-03-04T20:03:07.472Z,3.47
2019-03-04T20:05:37.681Z,3.46
2019-03-04T20:08:07.904Z,3.48
2019-03-04T20:10:38.229Z,3.43
2019-03-04T20:13:08.403Z,3.49
2019-03-04T20:15:38.675Z,3.40
2019-03-04T20:18:08.940Z,3.43
2019-03-04T20:20:59.831Z,3.42
2019-03-04T20:23:30.602Z,3.41
2019-03-04T20:26:01.500Z,3.40
2019-03-04T20:28:33.410Z,3.50
2019-03-04T20:34:24.496Z,3.52
2019-03-04T20:51:45.122Z,2.88
2019-03-04T20:54:15.738Z,3.35
2019-03-04T20:59:55.712Z,3.26
2019-03-04T21:05:17.870Z,3.20
2019-03-04T21:07:49.133Z,3.22
2019-03-04T21:10:20.087Z,3.30
2019-03-04T21:13:35.024Z,3.32
2019-03-04T21:16:01.045Z,3.16
2019-03-04T21:18:50.547Z,3.10
2019-03-04T21:21:26.327Z,3.09
2019-03-04T21:23:56.547Z,3.10
2019-03-04T21:26:32.835Z,3.07
2019-03-04T21:29:42.126Z,2.97
2019-03-04T21:32:50.822Z,2.93
2019-03-04T21:38:34.061Z,2.88
2019-03-04T21:41:43.340Z,2.75
2019-03-04T21:44:51.737Z,2.77
2019-03-04T21:47:44.434Z,2.57
2019-03-04T21:53:33.093Z,2.44
2019-03-04T21:56:26.565Z,2.42
2019-03-04T21:58:56.735Z,2.41
2019-03-04T22:01:51.201Z,2.29
2019-03-04T22:04:21.392Z,2.12
2019-03-04T22:06:51.525Z,2.10
2019-03-04T22:09:40.799Z,2.05
2019-03-04T22:12:14.176Z,1.97
2019-03-04T22:14:45.995Z,2.00
2019-03-04T22:20:00.792Z,1.92
2019-03-04T22:23:09.449Z,1.92
2019-03-04T22:25:40.137Z,1.82
2019-03-04T22:28:10.850Z,1.78
2019-03-04T22:31:01.522Z,1.76
2019-03-04T22:33:33.208Z,1.78
2019-03-04T22:36:05.881Z,1.79
2019-03-04T22:38:36.003Z,1.76
2019-03-04T22:41:06.128Z,1.73
2019-03-04T22:43:36.223Z,1.73
2019-03-04T22:46:06.325Z,1.70
2019-03-04T22:48:36.535Z,1.76
2019-03-04T22:51:06.629Z,1.77
2019-03-04T22:53:36.707Z,1.70
2019-03-04T22:56:06.864Z,1.69
2019-03-04T22:58:36.935Z,1.62
2019-03-04T23:01:40.321Z,1.63
2019-03-04T23:04:31.157Z,1.68
2019-03-04T23:07:22.139Z,1.63
2019-03-04T23:10:30.562Z,1.56
2019-03-04T23:13:38.995Z,1.53
2019-03-04T23:18:53.821Z,1.50
2019-03-04T23:21:23.928Z,1.47
2019-03-04T23:23:54.040Z,1.50
2019-03-04T23:26:24.201Z,1.53
2019-03-04T23:28:54.291Z,1.49
2019-03-04T23:31:24.429Z,1.54
2019-03-04T23:36:36.370Z,1.45
2019-03-04T23:39:27.701Z,1.47
2019-03-04T23:41:58.212Z,1.41
2019-03-04T23:44:28.718Z,1.38
2019-03-04T23:46:59.254Z,1.37
2019-03-04T23:49:29.694Z,1.34
2019-03-04T23:52:00.221Z,1.34
2019-03-04T23:54:30.597Z,1.26
2019-03-04T23:57:01.018Z,1.22
2019-03-04T23:59:31.417Z,1.23
